Time;durP1;ratioP1;P1;durP2;ratioP2;P2;SDS_P1;SDS_P2;PMS_P1;PMS_P2;Temp;Humidity;BMP_temperature;BMP_pressure;BME280_temperature;BME280_humidity;BME280_pressure;Samples;Min_cycle;Max_cycle;Signal;HPM_P1;HPM_P2
2023/08/17 00:02:13;;;;;;;3.65;1.45;;;22.90;99.90;23.00;100900.00;;;;4981666;28;93869;-68
2023/08/17 00:04:39;;;;;;;1.73;1.15;;;22.90;99.90;23.00;100900.00;;;;4979229;28;93260;-67
2023/08/17 00:07:05;;;;;;;2.10;1.48;;;22.80;99.90;23.00;100896.00;;;;4982958;28;92656;-67
2023/08/17 00:09:31;;;;;;;3.10;1.50;;;22.80;99.90;22.90;100901.00;;;;4987419;28;92850;-68
2023/08/17 00:11:56;;;;;;;1.75;1.40;;;22.70;99.90;22.90;100912.00;;;;4983068;28;109205;-67
2023/08/17 00:14:22;;;;;;;1.30;1.10;;;22.70;99.90;22.80;100898.00;;;;4982313;28;121858;-67
2023/08/17 00:16:50;;;;;;;1.33;1.23;;;22.70;99.90;22.80;100891.00;;;;4982862;28;110124;-66
2023/08/17 00:19:16;;;;;;;0.93;0.93;;;22.60;99.90;22.80;100883.00;;;;4982264;28;100021;-65
2023/08/17 00:21:42;;;;;;;2.00;1.73;;;22.60;99.90;22.70;100876.00;;;;4982458;27;113819;-68
2023/08/17 00:24:08;;;;;;;3.75;1.65;;;22.60;99.90;22.70;100884.00;;;;4981109;28;93551;-68
2023/08/17 00:26:34;;;;;;;2.80;1.88;;;22.50;99.90;22.70;100880.00;;;;4985514;28;92782;-68
2023/08/17 00:28:59;;;;;;;2.38;1.95;;;22.50;99.90;22.60;100879.00;;;;4989752;28;106817;-66
2023/08/17 00:31:25;;;;;;;1.23;1.05;;;22.50;99.90;22.60;100869.00;;;;4981516;28;120257;-65
2023/08/17 00:33:50;;;;;;;1.02;0.98;;;22.40;99.90;22.50;100867.00;;;;4982168;28;122833;-65
2023/08/17 00:36:19;;;;;;;1.35;1.25;;;22.40;99.90;22.50;100862.00;;;;4980336;28;109372;-67
2023/08/17 00:38:45;;;;;;;1.48;1.27;;;22.30;99.90;22.50;100865.00;;;;4980178;28;108879;-67
2023/08/17 00:41:11;;;;;;;1.25;1.15;;;22.30;99.90;22.40;100870.00;;;;4978890;28;121517;-66
2023/08/17 00:43:37;;;;;;;1.88;1.60;;;22.30;99.90;22.40;100870.00;;;;4978738;28;121296;-67
2023/08/17 00:46:03;;;;;;;1.70;1.60;;;22.20;99.90;22.30;100866.00;;;;4981038;28;110490;-66
2023/08/17 00:48:29;;;;;;;2.17;0.98;;;22.20;99.90;22.30;100862.00;;;;4983117;28;92875;-66
2023/08/17 00:50:57;;;;;;;1.38;1.27;;;22.10;99.90;22.20;100852.00;;;;4981600;27;94131;-66
2023/08/17 00:53:26;;;;;;;3.20;1.73;;;22.10;99.90;22.20;100844.00;;;;4981306;28;123478;-67
2023/08/17 00:55:52;;;;;;;2.70;1.70;;;22.00;99.90;22.10;100831.00;;;;4981097;28;100635;-67
2023/08/17 00:58:18;;;;;;;2.08;1.23;;;22.00;99.90;22.00;100829.00;;;;4984556;28;108987;-67
2023/08/17 01:00:44;;;;;;;1.70;1.58;;;21.90;99.90;22.00;100839.00;;;;4989458;28;122852;-66
2023/08/17 01:03:09;;;;;;;2.90;1.65;;;21.80;99.90;21.90;100831.00;;;;4978320;28;124605;-67
2023/08/17 01:05:36;;;;;;;1.88;1.33;;;21.80;99.90;21.80;100824.00;;;;4983789;28;93009;-66
2023/08/17 01:08:02;;;;;;;1.52;0.85;;;21.70;99.90;21.80;100832.00;;;;4985381;28;93098;-66
2023/08/17 01:10:44;;;;;;;2.15;1.30;;;21.60;99.90;21.70;100830.00;;;;4983391;28;93806;-66
2023/08/17 01:13:22;;;;;;;2.75;1.33;;;21.60;99.90;21.70;100836.00;;;;4981200;28;111662;-68
2023/08/17 01:15:56;;;;;;;1.15;1.05;;;21.50;99.90;21.60;100835.00;;;;4983969;28;92988;-67
2023/08/17 01:18:40;;;;;;;1.73;1.48;;;21.50;99.90;21.60;100834.00;;;;4986586;27;92951;-67
2023/08/17 01:21:10;;;;;;;1.10;0.93;;;21.50;99.90;21.60;100834.00;;;;4982931;28;92447;-67
2023/08/17 01:23:35;;;;;;;1.92;1.20;;;21.40;99.90;21.50;100838.00;;;;4980406;28;93163;-67
2023/08/17 01:26:01;;;;;;;2.10;1.15;;;21.40;99.90;21.50;100838.00;;;;4982605;28;92734;-66
2023/08/17 01:28:28;;;;;;;1.38;1.27;;;21.40;99.90;21.50;100821.00;;;;4985918;27;93802;-66
2023/08/17 01:31:05;;;;;;;2.40;1.83;;;21.30;99.90;21.40;100832.00;;;;4981142;28;122823;-67
2023/08/17 01:33:45;;;;;;;1.85;1.25;;;21.30;99.90;21.40;100844.00;;;;4982824;28;107016;-66
2023/08/17 01:36:24;;;;;;;1.52;1.42;;;21.30;99.90;21.40;100850.00;;;;4980876;28;95901;-67
2023/08/17 01:38:52;;;;;;;1.52;1.42;;;21.20;99.90;21.40;100847.00;;;;4981273;28;93023;-67
2023/08/17 01:41:20;;;;;;;2.63;1.67;;;21.20;99.90;21.30;100854.00;;;;4977942;28;93211;-67
2023/08/17 01:43:47;;;;;;;2.03;1.30;;;21.20;99.90;21.30;100854.00;;;;4982154;28;113618;-67
2023/08/17 01:46:17;;;;;;;2.20;1.30;;;21.20;99.90;21.30;100870.00;;;;4981195;28;92356;-67
2023/08/17 01:48:44;;;;;;;1.20;1.10;;;21.20;99.90;21.30;100867.00;;;;4981966;28;93056;-67
2023/08/17 01:51:15;;;;;;;2.67;1.73;;;21.10;99.90;21.20;100863.00;;;;4979658;28;94453;-67
2023/08/17 01:53:41;;;;;;;1.98;1.40;;;21.10;99.90;21.20;100863.00;;;;4979846;28;110839;-66
2023/08/17 01:56:06;;;;;;;1.58;1.42;;;21.00;99.90;21.10;100858.00;;;;4981855;28;108600;-67
2023/08/17 01:58:32;;;;;;;1.55;1.42;;;21.00;99.90;21.10;100864.00;;;;4984626;28;93282;-67
2023/08/17 02:00:58;;;;;;;1.52;1.42;;;20.90;99.90;21.10;100883.00;;;;4978209;28;122679;-67
2023/08/17 02:03:23;;;;;;;2.05;1.08;;;20.90;99.90;21.00;100888.00;;;;4980551;28;93735;-67
2023/08/17 02:05:49;;;;;;;1.30;1.10;;;20.90;99.90;21.00;100890.00;;;;4980197;28;93148;-67
2023/08/17 02:08:15;;;;;;;2.83;1.60;;;20.80;99.90;20.90;100879.00;;;;4984819;28;93091;-68
2023/08/17 02:10:40;;;;;;;2.90;1.20;;;20.80;99.90;20.90;100884.00;;;;4982306;28;120777;-67
2023/08/17 02:13:06;;;;;;;5.00;1.30;;;20.80;99.90;20.90;100875.00;;;;4981695;27;123428;-67
2023/08/17 02:15:32;;;;;;;2.88;1.52;;;20.80;99.90;20.90;100873.00;;;;4982341;28;92817;-67
2023/08/17 02:18:01;;;;;;;1.50;1.40;;;20.80;99.90;20.90;100871.00;;;;4978033;28;107596;-67
2023/08/17 02:20:27;;;;;;;1.40;1.17;;;20.80;99.90;21.00;100864.00;;;;4979474;28;123582;-67
2023/08/17 02:22:52;;;;;;;1.35;1.13;;;20.80;99.90;21.00;100877.00;;;;4979292;28;122532;-67
2023/08/17 02:25:18;;;;;;;2.03;1.33;;;20.80;99.90;21.00;100877.00;;;;4981124;28;110259;-67
2023/08/17 02:27:44;;;;;;;1.42;1.33;;;20.80;99.90;21.00;100873.00;;;;4985813;28;104520;-67
2023/08/17 02:30:10;;;;;;;1.77;1.45;;;20.80;99.90;21.00;100875.00;;;;4980080;28;123475;-67
2023/08/17 02:32:36;;;;;;;4.15;2.10;;;20.80;99.90;21.00;100884.00;;;;4980017;28;111793;-67
2023/08/17 02:35:01;;;;;;;1.65;1.55;;;20.80;99.90;21.00;100883.00;;;;4984746;28;96367;-68
2023/08/17 02:37:27;;;;;;;4.57;1.58;;;20.80;99.90;21.00;100883.00;;;;4979050;28;92927;-67
2023/08/17 02:39:53;;;;;;;1.30;1.20;;;20.80;99.90;20.90;100880.00;;;;4982326;28;93365;-66
2023/08/17 02:42:19;;;;;;;4.45;1.92;;;20.80;99.90;20.90;100880.00;;;;4974567;28;122531;-66
2023/08/17 02:44:44;;;;;;;1.30;1.20;;;20.70;99.90;20.90;100876.00;;;;4980075;28;93290;-66
2023/08/17 02:47:10;;;;;;;3.03;1.63;;;20.70;99.90;20.80;100878.00;;;;4981609;28;109267;-66
2023/08/17 02:49:36;;;;;;;1.67;1.58;;;20.70;99.90;20.80;100882.00;;;;4983117;28;104838;-67
2023/08/17 02:52:02;;;;;;;2.80;1.67;;;20.60;99.90;20.70;100879.00;;;;4980633;28;122194;-67
2023/08/17 02:54:27;;;;;;;3.75;1.75;;;20.60;99.90;20.70;100873.00;;;;4983583;27;92890;-66
2023/08/17 02:56:53;;;;;;;3.95;1.98;;;20.50;99.90;20.70;100876.00;;;;4981759;28;92779;-67
2023/08/17 02:59:19;;;;;;;2.00;1.75;;;20.50;99.90;20.60;100882.00;;;;4982872;28;121295;-67
2023/08/17 03:01:45;;;;;;;1.92;1.80;;;20.50;99.90;20.60;100876.00;;;;4981932;28;121732;-67
2023/08/17 03:04:11;;;;;;;2.70;1.60;;;20.50;99.90;20.60;100872.00;;;;4979093;28;101445;-67
2023/08/17 03:06:37;;;;;;;5.22;2.05;;;20.40;99.90;20.60;100882.00;;;;4979191;28;108773;-67
2023/08/17 03:09:03;;;;;;;1.38;1.27;;;20.40;99.90;20.50;100880.00;;;;4984789;27;122762;-67
2023/08/17 03:11:29;;;;;;;1.60;1.45;;;20.40;99.90;20.50;100869.00;;;;4979841;28;93465;-67
2023/08/17 03:13:59;;;;;;;2.30;2.00;;;20.30;99.90;20.50;100872.00;;;;4982025;28;110572;-67
2023/08/17 03:16:26;;;;;;;2.13;1.48;;;20.30;99.90;20.50;100881.00;;;;4982678;28;93001;-67
2023/08/17 03:18:52;;;;;;;1.83;1.73;;;20.30;99.90;20.40;100865.00;;;;4984445;28;93722;-67
2023/08/17 03:21:19;;;;;;;3.10;1.27;;;20.30;99.90;20.40;100883.00;;;;4982942;28;121459;-67
2023/08/17 03:23:45;;;;;;;3.75;1.88;;;20.30;99.90;20.40;100880.00;;;;4985025;28;92962;-67
2023/08/17 03:26:11;;;;;;;2.13;1.52;;;20.30;99.90;20.40;100879.00;;;;4982084;28;100697;-67
2023/08/17 03:28:36;;;;;;;6.15;1.90;;;20.30;99.90;20.50;100887.00;;;;4987362;28;122248;-67
2023/08/17 03:31:03;;;;;;;2.65;1.92;;;20.30;99.90;20.50;100894.00;;;;4984147;28;114654;-67
2023/08/17 03:33:29;;;;;;;2.85;1.40;;;20.30;99.90;20.60;100885.00;;;;4984089;28;111026;-67
2023/08/17 03:35:54;;;;;;;2.30;1.88;;;20.40;99.90;20.60;100892.00;;;;4981817;28;101151;-67
2023/08/17 03:38:20;;;;;;;6.68;2.00;;;20.50;99.90;20.60;100881.00;;;;4983979;28;124206;-66
2023/08/17 03:40:47;;;;;;;1.85;1.73;;;20.30;99.90;20.60;100879.00;;;;4984890;28;95110;-66
2023/08/17 03:43:13;;;;;;;2.17;1.65;;;20.40;99.90;20.60;100884.00;;;;4984686;28;92723;-67
2023/08/17 03:45:41;;;;;;;3.78;2.35;;;20.40;99.90;20.50;100868.00;;;;4985012;27;100808;-66
2023/08/17 03:48:07;;;;;;;4.38;2.53;;;20.40;99.90;20.50;100865.00;;;;4985294;28;107148;-66
2023/08/17 03:50:33;;;;;;;2.25;2.05;;;20.30;99.90;20.40;100859.00;;;;4984880;28;93746;-66
2023/08/17 03:52:58;;;;;;;2.28;1.67;;;20.30;99.90;20.40;100855.00;;;;4980925;28;110688;-66
2023/08/17 03:55:24;;;;;;;2.95;1.73;;;20.30;99.90;20.40;100863.00;;;;4986575;28;108469;-67
2023/08/17 03:57:53;;;;;;;4.05;2.10;;;20.20;99.90;20.30;100865.00;;;;4981475;28;116016;-67
2023/08/17 04:00:18;;;;;;;9.98;2.00;;;20.20;99.90;20.30;100864.00;;;;4985210;28;115427;-66
2023/08/17 04:02:44;;;;;;;2.60;2.10;;;20.20;99.90;20.20;100855.00;;;;4981589;28;110236;-67
2023/08/17 04:05:10;;;;;;;3.72;2.65;;;20.10;99.90;20.20;100853.00;;;;4982719;27;109280;-66
2023/08/17 04:07:36;;;;;;;2.22;1.80;;;20.10;99.90;20.20;100859.00;;;;4980718;28;121067;-67
2023/08/17 04:10:05;;;;;;;2.17;1.92;;;20.10;99.90;20.20;100864.00;;;;4983801;28;93895;-67
2023/08/17 04:12:30;;;;;;;2.47;2.28;;;20.10;99.90;20.20;100856.00;;;;4984778;28;93205;-67
2023/08/17 04:14:56;;;;;;;3.53;1.90;;;20.10;99.90;20.20;100865.00;;;;4983095;28;94603;-69
2023/08/17 04:17:22;;;;;;;3.00;2.65;;;20.00;99.90;20.20;100866.00;;;;4981908;28;122214;-67
2023/08/17 04:19:47;;;;;;;3.10;1.70;;;20.00;99.90;20.20;100867.00;;;;4982200;28;93859;-67
2023/08/17 04:22:13;;;;;;;2.17;1.67;;;20.10;99.90;20.20;100864.00;;;;4985411;28;110033;-67
2023/08/17 04:24:39;;;;;;;2.38;2.17;;;20.00;99.90;20.20;100860.00;;;;4982488;28;109380;-68
2023/08/17 04:27:05;;;;;;;4.55;2.25;;;20.00;99.90;20.20;100866.00;;;;4981575;27;93689;-68
2023/08/17 04:29:31;;;;;;;3.15;2.10;;;20.10;99.90;20.20;100863.00;;;;4983577;28;93736;-67
2023/08/17 04:31:58;;;;;;;3.33;2.10;;;20.00;99.90;20.20;100876.00;;;;4983263;28;93238;-67
2023/08/17 04:34:24;;;;;;;3.03;1.92;;;20.00;99.90;20.20;100878.00;;;;4986465;28;98377;-66
2023/08/17 04:36:50;;;;;;;3.58;2.33;;;20.10;99.90;20.20;100873.00;;;;4984856;28;92265;-66
2023/08/17 04:39:16;;;;;;;3.60;2.53;;;20.10;99.90;20.30;100877.00;;;;4982622;28;121584;-66
2023/08/17 04:41:41;;;;;;;5.20;2.72;;;20.10;99.90;20.30;100887.00;;;;4984116;27;92869;-66
2023/08/17 04:44:07;;;;;;;5.90;2.15;;;20.20;99.90;20.40;100888.00;;;;4981913;28;108920;-69
2023/08/17 04:46:33;;;;;;;2.88;1.98;;;20.20;99.90;20.50;100890.00;;;;4982801;28;92815;-66
2023/08/17 04:48:59;;;;;;;3.30;2.50;;;20.20;99.90;20.50;100883.00;;;;4979459;28;108690;-66
2023/08/17 04:51:24;;;;;;;3.28;2.20;;;20.30;99.90;20.50;100880.00;;;;4984304;28;92996;-67
2023/08/17 04:53:50;;;;;;;1.75;1.50;;;20.30;99.90;20.50;100879.00;;;;4984430;28;109045;-66
2023/08/17 04:56:16;;;;;;;2.40;2.13;;;20.30;99.90;20.60;100882.00;;;;4981279;28;93854;-65
2023/08/17 04:58:41;;;;;;;3.63;1.95;;;20.40;99.90;20.60;100876.00;;;;4980790;28;122929;-67
2023/08/17 05:01:07;;;;;;;2.88;2.25;;;20.40;99.90;20.60;100879.00;;;;4981162;28;110996;-66
2023/08/17 05:03:33;;;;;;;3.67;2.20;;;20.40;99.90;20.60;100879.00;;;;4981893;27;107764;-68
2023/08/17 05:05:59;;;;;;;2.53;2.33;;;20.40;99.90;20.70;100886.00;;;;4983455;27;93866;-68
2023/08/17 05:08:25;;;;;;;3.03;2.17;;;20.50;99.90;20.70;100874.00;;;;4978088;27;122471;-68
2023/08/17 05:10:50;;;;;;;2.03;1.85;;;20.50;99.90;20.80;100872.00;;;;4979256;28;93021;-67
2023/08/17 05:13:17;;;;;;;3.72;2.70;;;20.60;99.90;20.90;100869.00;;;;4979215;28;92837;-68
2023/08/17 05:15:42;;;;;;;3.22;2.33;;;20.70;99.90;21.00;100875.00;;;;4977393;28;122162;-67
2023/08/17 05:18:08;;;;;;;3.25;2.08;;;20.70;99.90;21.10;100882.00;;;;4979234;28;121203;-67
2023/08/17 05:20:34;;;;;;;2.50;2.30;;;20.80;99.90;21.20;100893.00;;;;4980003;28;110172;-66
2023/08/17 05:22:59;;;;;;;2.67;1.85;;;20.90;99.90;21.30;100905.00;;;;4977536;28;108468;-67
2023/08/17 05:25:26;;;;;;;1.92;1.77;;;21.00;99.90;21.40;100899.00;;;;4979523;28;122624;-68
2023/08/17 05:27:52;;;;;;;2.55;2.00;;;21.10;99.90;21.50;100901.00;;;;4981470;28;92851;-66
2023/08/17 05:30:18;;;;;;;2.45;2.25;;;21.30;99.90;21.60;100914.00;;;;4978631;28;92993;-67
2023/08/17 05:32:43;;;;;;;2.53;2.10;;;21.40;99.90;21.60;100911.00;;;;4980359;28;107165;-66
2023/08/17 05:35:15;;;;;;;2.55;2.13;;;21.40;99.90;21.70;100911.00;;;;4977774;28;105966;-67
2023/08/17 05:37:40;;;;;;;4.10;2.33;;;21.40;99.90;21.70;100907.00;;;;4979073;27;123188;-67
2023/08/17 05:40:08;;;;;;;1.73;1.63;;;21.50;99.90;21.70;100905.00;;;;4977506;28;111261;-66
2023/08/17 05:42:34;;;;;;;2.47;1.80;;;21.50;99.90;21.70;100899.00;;;;4980722;28;92919;-67
2023/08/17 05:45:00;;;;;;;2.30;1.55;;;21.50;99.90;21.80;100906.00;;;;4977039;28;122729;-67
2023/08/17 05:47:25;;;;;;;2.35;2.10;;;21.50;99.90;21.80;100906.00;;;;4978417;28;94365;-67
2023/08/17 05:49:51;;;;;;;2.75;2.00;;;21.60;99.90;21.80;100909.00;;;;4978418;28;109505;-66
2023/08/17 05:52:17;;;;;;;2.97;1.98;;;21.60;99.90;21.80;100906.00;;;;4975550;28;108342;-66
2023/08/17 05:54:42;;;;;;;2.33;2.10;;;21.60;99.90;21.90;100914.00;;;;4973732;28;122163;-67
2023/08/17 05:57:08;;;;;;;2.20;1.50;;;21.70;99.90;21.90;100929.00;;;;4975898;28;95804;-67
2023/08/17 05:59:34;;;;;;;2.42;1.92;;;21.70;99.90;22.00;100927.00;;;;4979798;27;93010;-67
2023/08/17 06:01:59;;;;;;;2.53;2.03;;;21.50;99.90;22.00;100927.00;;;;4973313;28;108455;-67
2023/08/17 06:04:28;;;;;;;2.53;2.05;;;21.80;99.90;22.20;100946.00;;;;4977357;28;122217;-67
2023/08/17 06:06:54;;;;;;;2.17;1.90;;;21.90;99.90;22.30;100939.00;;;;4977903;28;93550;-67
2023/08/17 06:09:20;;;;;;;2.25;1.65;;;22.00;99.90;22.40;100949.00;;;;4979198;28;93192;-68
2023/08/17 06:11:46;;;;;;;3.60;2.33;;;22.10;99.90;22.50;100954.00;;;;4979682;28;97475;-67
2023/08/17 06:14:12;;;;;;;1.88;1.27;;;22.20;99.90;22.70;100953.00;;;;4978501;28;108743;-67
2023/08/17 06:16:37;;;;;;;1.13;1.02;;;22.40;99.90;22.80;100933.00;;;;4991065;28;92878;-68
2023/08/17 06:19:03;;;;;;;3.05;1.67;;;22.50;99.90;23.00;100925.00;;;;4972072;28;92998;-67
2023/08/17 06:21:29;;;;;;;3.28;1.70;;;22.70;99.90;23.10;100926.00;;;;4973765;28;108904;-67
2023/08/17 06:23:54;;;;;;;1.85;1.55;;;22.80;99.90;23.30;100923.00;;;;4976373;28;123103;-67
2023/08/17 06:26:20;;;;;;;1.98;1.75;;;22.90;99.90;23.40;100931.00;;;;4973872;28;121889;-67
2023/08/17 06:28:46;;;;;;;2.75;1.90;;;23.10;99.90;23.60;100931.00;;;;4975293;28;109950;-67
2023/08/17 06:31:15;;;;;;;3.05;1.95;;;23.30;99.90;23.80;100938.00;;;;4976598;28;109588;-68
2023/08/17 06:33:40;;;;;;;2.35;2.03;;;23.50;99.90;24.00;100937.00;;;;4979138;28;102974;-67
2023/08/17 06:36:06;;;;;;;1.55;0.98;;;23.60;99.90;24.20;100940.00;;;;4975315;28;121898;-66
2023/08/17 06:38:32;;;;;;;3.10;1.75;;;23.90;99.90;24.40;100938.00;;;;4976858;28;110131;-68
2023/08/17 06:40:57;;;;;;;3.35;1.15;;;24.10;99.90;24.60;100942.00;;;;4973589;27;110547;-68
2023/08/17 06:43:23;;;;;;;2.25;1.33;;;24.20;99.90;24.80;100949.00;;;;4975538;28;93326;-68
2023/08/17 06:45:49;;;;;;;3.58;1.80;;;24.40;99.90;24.90;100944.00;;;;4982051;28;123882;-68
2023/08/17 06:48:14;;;;;;;2.80;1.67;;;24.60;99.90;24.80;100948.00;;;;4975085;28;110528;-68
2023/08/17 06:50:40;;;;;;;2.20;1.52;;;24.60;99.90;24.80;100945.00;;;;4978751;27;108178;-68
2023/08/17 06:53:06;;;;;;;1.48;0.95;;;24.70;99.90;24.80;100958.00;;;;4979162;28;122063;-68
2023/08/17 06:55:31;;;;;;;1.75;1.00;;;24.50;99.90;24.80;100963.00;;;;4981164;27;120617;-68
2023/08/17 06:57:57;;;;;;;1.20;1.10;;;24.50;99.90;24.90;100958.00;;;;4978328;28;109685;-68
2023/08/17 07:00:23;;;;;;;3.03;1.65;;;24.60;99.90;25.10;100954.00;;;;4983570;28;106532;-68
2023/08/17 07:02:50;;;;;;;2.33;1.40;;;24.80;99.90;25.20;100957.00;;;;4981194;28;112967;-68
2023/08/17 07:05:16;;;;;;;2.72;1.25;;;24.90;99.90;25.30;100957.00;;;;4981700;27;104624;-68
2023/08/17 07:07:48;;;;;;;1.83;1.48;;;25.00;99.90;25.40;100960.00;;;;4982137;28;93011;-68
2023/08/17 07:10:38;;;;;;;2.00;1.10;;;25.10;99.90;25.50;100967.00;;;;4982099;28;109030;-68
2023/08/17 07:13:04;;;;;;;3.38;1.58;;;25.20;99.90;25.60;100968.00;;;;4977854;28;92957;-68
2023/08/17 07:15:31;;;;;;;1.40;1.10;;;25.30;99.90;25.80;100975.00;;;;4980262;28;93136;-68
2023/08/17 07:17:56;;;;;;;1.95;1.63;;;25.50;99.90;26.00;100961.00;;;;4977691;28;96103;-68
2023/08/17 07:20:22;;;;;;;3.42;1.77;;;25.70;99.90;26.30;100979.00;;;;4977803;28;108349;-68
2023/08/17 07:22:48;;;;;;;1.25;1.10;;;25.90;99.90;26.60;100971.00;;;;4980009;27;114912;-68
2023/08/17 07:25:14;;;;;;;4.45;2.00;;;26.20;99.90;26.70;100977.00;;;;4976139;27;123642;-68
2023/08/17 07:27:40;;;;;;;1.27;1.17;;;26.40;99.90;26.70;100971.00;;;;4981107;28;92389;-69
2023/08/17 07:30:06;;;;;;;2.10;1.40;;;26.40;99.90;26.70;100972.00;;;;4980144;28;93475;-69
2023/08/17 07:32:33;;;;;;;1.30;1.20;;;26.40;99.90;26.60;100972.00;;;;4982138;27;93157;-68
2023/08/17 07:34:59;;;;;;;2.30;1.58;;;26.30;99.90;26.60;100960.00;;;;4982680;28;94036;-67
2023/08/17 07:37:31;;;;;;;1.95;1.52;;;26.30;99.90;26.40;100961.00;;;;4979204;28;110550;-67
2023/08/17 07:39:56;;;;;;;3.55;1.33;;;26.20;99.90;26.20;100957.00;;;;4980981;28;94038;-67
2023/08/17 07:42:22;;;;;;;2.15;1.70;;;26.00;99.80;26.10;100949.00;;;;4965948;27;113277;-68
2023/08/17 07:44:48;;;;;;;1.70;1.33;;;25.90;99.90;26.00;100949.00;;;;4979854;27;121509;-67
2023/08/17 07:47:13;;;;;;;1.90;1.67;;;25.80;99.90;26.00;100951.00;;;;4981610;27;110593;-66
2023/08/17 07:49:40;;;;;;;2.15;1.70;;;25.70;99.90;26.00;100945.00;;;;4979131;28;108351;-68
2023/08/17 07:52:06;;;;;;;1.17;1.05;;;25.70;99.90;26.10;100942.00;;;;4963656;27;93063;-68
2023/08/17 07:54:32;;;;;;;1.80;1.42;;;25.80;99.90;26.40;100944.00;;;;4980809;27;93196;-69
2023/08/17 07:56:57;;;;;;;4.20;1.58;;;26.00;99.90;26.80;100945.00;;;;4981200;27;92835;-67
2023/08/17 07:59:23;;;;;;;1.65;1.20;;;26.30;99.90;27.20;100934.00;;;;4981888;27;108636;-68
2023/08/17 08:01:49;;;;;;;3.25;1.52;;;26.70;99.90;27.50;100941.00;;;;4980846;27;101474;-68
2023/08/17 08:04:14;;;;;;;2.42;1.88;;;27.00;99.90;27.90;100935.00;;;;4979184;27;121476;-68
2023/08/17 08:06:40;;;;;;;1.23;0.93;;;27.40;99.60;28.30;100933.00;;;;4977455;27;112398;-68
2023/08/17 08:09:06;;;;;;;1.80;1.40;;;27.80;99.10;28.70;100927.00;;;;4979265;27;110871;-69
2023/08/17 08:11:32;;;;;;;2.53;1.30;;;28.20;98.50;29.00;100930.00;;;;4980554;27;93577;-68
2023/08/17 08:14:00;;;;;;;1.50;1.30;;;28.50;98.00;29.30;100920.00;;;;4979213;27;122912;-68
2023/08/17 08:16:30;;;;;;;1.33;1.23;;;28.90;97.40;29.60;100921.00;;;;4968887;27;111603;-67
2023/08/17 08:18:56;;;;;;;1.73;1.17;;;29.20;96.30;29.80;100930.00;;;;4982859;27;93068;-67
2023/08/17 08:21:21;;;;;;;2.90;1.85;;;29.40;95.70;30.00;100929.00;;;;4980470;27;98646;-67
2023/08/17 08:23:47;;;;;;;2.92;1.02;;;29.60;94.90;30.20;100926.00;;;;4977801;27;121650;-67
2023/08/17 08:26:13;;;;;;;2.38;1.30;;;29.80;93.10;30.20;100927.00;;;;4977503;27;110209;-67
2023/08/17 08:28:39;;;;;;;2.03;1.58;;;29.90;91.50;30.20;100928.00;;;;4983237;27;93219;-67
2023/08/17 08:31:05;;;;;;;1.60;1.50;;;29.90;90.70;30.20;100922.00;;;;4977917;27;119154;-67
2023/08/17 08:33:31;;;;;;;1.92;1.20;;;29.90;90.50;30.20;100929.00;;;;4975964;27;121655;-67
2023/08/17 08:35:56;;;;;;;1.77;1.30;;;29.90;90.30;30.10;100930.00;;;;4979433;27;108257;-67
2023/08/17 08:38:22;;;;;;;1.92;1.33;;;29.90;89.90;30.10;100927.00;;;;4979213;27;107917;-65
2023/08/17 08:40:48;;;;;;;1.55;1.27;;;29.80;89.50;30.20;100925.00;;;;4979635;27;121931;-67
2023/08/17 08:43:17;;;;;;;2.13;1.35;;;29.80;88.80;30.20;100931.00;;;;4970752;27;122491;-67
2023/08/17 08:45:46;;;;;;;2.97;1.63;;;29.80;89.40;30.20;100930.00;;;;4976630;27;101990;-67
2023/08/17 08:48:13;;;;;;;1.80;1.33;;;29.80;88.00;30.20;100930.00;;;;4977165;27;94154;-67
2023/08/17 08:50:41;;;;;;;1.25;0.98;;;29.90;88.20;30.20;100924.00;;;;4976111;27;110342;-66
2023/08/17 08:53:14;;;;;;;3.38;1.60;;;29.80;88.20;30.20;100929.00;;;;4977006;27;93885;-69
2023/08/17 08:55:47;;;;;;;1.35;0.95;;;29.80;88.40;30.30;100919.00;;;;4981024;27;93793;-71
2023/08/17 08:58:16;;;;;;;1.48;1.38;;;29.90;88.70;30.40;100920.00;;;;4978996;27;100416;-71
2023/08/17 09:00:45;;;;;;;1.70;1.00;;;30.00;89.40;30.60;100920.00;;;;4980752;28;94264;-71
2023/08/17 09:03:11;;;;;;;3.70;1.10;;;30.20;87.70;30.70;100915.00;;;;4979181;28;107141;-71
2023/08/17 09:05:38;;;;;;;1.92;1.25;;;30.30;86.50;30.80;100912.00;;;;4978488;27;92767;-72
2023/08/17 09:08:06;;;;;;;1.60;1.50;;;30.40;86.80;30.80;100911.00;;;;4975380;27;108019;-71
2023/08/17 09:20:47;;;;;;;2.45;1.48;;;29.90;84.70;30.30;100905.00;;;;4955922;28;93676;-69
2023/08/17 09:23:17;;;;;;;1.50;1.40;;;29.90;85.20;30.30;100909.00;;;;4955774;28;110502;-70
2023/08/17 09:25:44;;;;;;;1.77;1.33;;;30.60;85.00;30.30;100901.00;;;;4956409;28;92823;-70
2023/08/17 09:28:14;;;;;;;1.90;1.75;;;29.90;85.20;30.50;100902.00;;;;4957347;28;93063;-70
2023/08/17 09:30:54;;;;;;;2.03;1.70;;;30.00;85.20;30.70;100914.00;;;;4973119;28;92317;-70
2023/08/17 09:33:28;;;;;;;2.08;1.58;;;30.20;85.10;30.80;100906.00;;;;4970500;28;92997;-72
2023/08/17 09:35:56;;;;;;;3.03;2.17;;;30.30;84.70;30.80;100910.00;;;;4942433;28;92933;-69
2023/08/17 09:38:22;;;;;;;5.65;2.55;;;30.40;83.90;30.70;100910.00;;;;4945232;28;94576;-68
2023/08/17 09:40:48;;;;;;;2.50;1.58;;;30.30;84.00;30.50;100905.00;;;;4968836;28;121274;-71
2023/08/17 09:43:15;;;;;;;1.75;1.58;;;30.10;83.70;30.50;100903.00;;;;4957886;28;93410;-71
2023/08/17 09:45:44;;;;;;;2.50;1.40;;;30.10;85.10;30.60;100903.00;;;;4958809;28;92491;-70
2023/08/17 09:48:10;;;;;;;2.35;1.70;;;30.10;85.70;30.80;100897.00;;;;4956425;28;93878;-70
2023/08/17 09:50:36;;;;;;;2.17;1.73;;;30.30;86.00;31.10;100896.00;;;;4957064;28;121293;-72
2023/08/17 09:53:03;;;;;;;2.63;1.48;;;30.50;85.80;31.30;100896.00;;;;4956572;28;114821;-71
2023/08/17 09:55:34;;;;;;;1.70;1.60;;;30.70;83.90;31.30;100902.00;;;;4954167;28;91700;-72
2023/08/17 09:58:00;;;;;;;2.50;2.05;;;30.80;82.40;31.40;100907.00;;;;4955155;28;93038;-70
2023/08/17 10:00:28;;;;;;;2.50;1.98;;;30.90;83.20;31.60;100896.00;;;;4957779;28;93846;-72
2023/08/17 10:02:55;;;;;;;1.83;1.40;;;31.00;83.00;31.70;100896.00;;;;4955958;28;93706;-71
2023/08/17 10:05:21;;;;;;;3.25;1.60;;;31.10;80.30;31.60;100895.00;;;;4957446;28;92815;-70
2023/08/17 10:07:53;;;;;;;2.25;2.00;;;31.10;79.70;31.40;100886.00;;;;4935619;28;92916;-71
2023/08/17 10:10:25;;;;;;;3.88;2.13;;;30.90;78.40;31.10;100896.00;;;;4954787;28;92803;-71
2023/08/17 10:13:08;;;;;;;3.13;2.33;;;30.70;79.30;31.00;100886.00;;;;4971967;28;94318;-72
2023/08/17 10:15:40;;;;;;;3.40;2.40;;;30.50;79.70;31.10;100884.00;;;;4955174;28;92161;-72
2023/08/17 10:18:46;;;;;;;2.70;1.73;;;30.50;80.20;31.40;100888.00;;;;4953820;28;97520;-70
2023/08/17 10:21:36;;;;;;;2.20;2.00;;;30.70;80.90;31.70;100886.00;;;;4924899;28;93922;-70
2023/08/17 10:24:03;;;;;;;3.42;1.90;;;31.00;79.30;31.80;100884.00;;;;4954535;28;96065;-71
2023/08/17 10:26:29;;;;;;;5.47;1.80;;;31.10;79.20;32.10;100885.00;;;;4957062;28;92514;-71
2023/08/17 10:28:58;;;;;;;1.55;1.45;;;31.30;78.90;32.30;100880.00;;;;4953094;28;93275;-72
2023/08/17 10:31:25;;;;;;;3.00;2.30;;;31.60;78.00;32.60;100885.00;;;;4971595;28;93859;-71
2023/08/17 10:33:51;;;;;;;3.28;2.28;;;31.80;76.80;32.90;100884.00;;;;4955251;28;93168;-70
2023/08/17 10:36:17;;;;;;;5.30;2.25;;;32.10;75.90;33.00;100874.00;;;;4956441;28;102734;-72
2023/08/17 10:38:43;;;;;;;2.30;1.42;;;32.20;73.50;33.20;100876.00;;;;4954281;28;107699;-72
2023/08/17 10:41:14;;;;;;;3.63;1.88;;;32.40;74.90;33.50;100870.00;;;;4955001;28;116322;-71
2023/08/17 10:44:12;;;;;;;4.38;2.00;;;32.70;74.60;33.80;100874.00;;;;4958282;28;93208;-72
2023/08/17 10:46:42;;;;;;;3.40;1.80;;;33.00;73.00;33.90;100872.00;;;;4918812;28;109929;-72
2023/08/17 10:49:25;;;;;;;3.15;2.35;;;33.20;70.90;34.10;100865.00;;;;4947008;28;93259;-71
2023/08/17 10:52:04;;;;;;;3.38;1.70;;;33.40;70.00;34.20;100872.00;;;;4955301;28;94943;-71
2023/08/17 10:54:42;;;;;;;4.80;2.17;;;33.50;68.10;34.10;100863.00;;;;4955225;28;93713;-71